createdAt,value
2019-05-21T00:01:05.686Z,4.20
2019-05-21T00:06:27.879Z,3.98
2019-05-21T00:11:50.158Z,4.40
2019-05-21T00:17:12.107Z,4.08
2019-05-21T00:22:33.991Z,4.17
2019-05-21T00:28:08.299Z,4.00
2019-05-21T00:34:06.405Z,4.30
2019-05-21T00:40:04.479Z,4.60
2019-05-21T00:45:26.754Z,4.53
2019-05-21T00:50:49.474Z,4.25
2019-05-21T00:56:11.765Z,4.53
2019-05-21T01:01:33.970Z,4.80
2019-05-21T01:06:56.213Z,4.62
2019-05-21T01:12:18.425Z,4.90
2019-05-21T01:17:40.685Z,4.60
2019-05-21T01:23:02.726Z,5.28
2019-05-21T01:28:24.695Z,4.83
2019-05-21T01:33:46.796Z,5.03
2019-05-21T01:39:08.954Z,4.97
2019-05-21T01:44:31.159Z,5.50
2019-05-21T01:49:53.492Z,4.65
2019-05-21T01:55:15.323Z,5.40
2019-05-21T02:00:37.397Z,5.22
2019-05-21T02:05:59.502Z,5.05
2019-05-21T02:11:21.377Z,4.97
2019-05-21T02:16:43.266Z,4.90
2019-05-21T02:22:05.103Z,4.83
2019-05-21T02:27:27.064Z,4.92
2019-05-21T02:32:48.920Z,4.75
2019-05-21T02:38:11.413Z,5.12
2019-05-21T02:43:33.101Z,4.62
2019-05-21T02:49:14.495Z,4.90
2019-05-21T02:54:41.084Z,4.75
2019-05-21T03:00:02.124Z,4.83
2019-05-21T03:05:24.434Z,4.45
2019-05-21T03:10:45.983Z,5.28
2019-05-21T03:16:07.986Z,5.50
2019-05-21T03:21:30.102Z,5.25
2019-05-21T03:26:52.370Z,4.75
2019-05-21T03:32:14.524Z,4.60
2019-05-21T03:37:36.239Z,4.67
2019-05-21T03:42:58.111Z,4.60
2019-05-21T03:48:20.135Z,4.97
2019-05-21T03:53:42.607Z,5.00
2019-05-21T03:59:04.286Z,4.85
2019-05-21T04:04:25.943Z,5.05
2019-05-21T04:10:08.168Z,4.85
2019-05-21T04:15:30.530Z,4.53
2019-05-21T04:20:52.123Z,4.53
2019-05-21T04:26:13.998Z,4.80
2019-05-21T04:31:36.007Z,4.45
2019-05-21T04:37:10.126Z,4.40
2019-05-21T04:42:22.233Z,4.62
2019-05-21T04:47:44.044Z,4.65
2019-05-21T04:53:06.005Z,4.60
2019-05-21T04:58:27.988Z,4.60
2019-05-21T05:03:50.608Z,4.60
2019-05-21T05:09:12.712Z,5.00
2019-05-21T05:14:34.906Z,4.20
2019-05-21T05:19:56.972Z,4.25
2019-05-21T05:25:19.003Z,4.50
2019-05-21T05:30:41.152Z,4.40
2019-05-21T05:36:03.279Z,5.15
2019-05-21T05:41:25.261Z,4.80
2019-05-21T05:46:46.814Z,4.40
2019-05-21T05:52:08.573Z,5.40
2019-05-21T05:57:30.214Z,6.50
2019-05-21T06:02:51.922Z,6.05
2019-05-21T06:08:13.465Z,7.72
2019-05-21T06:13:35.004Z,7.40
2019-05-21T06:18:56.876Z,8.55
2019-05-21T06:24:18.829Z,8.40
2019-05-21T06:29:41.403Z,8.45
2019-05-21T06:35:03.446Z,8.40
2019-05-21T06:40:25.160Z,7.75
2019-05-21T06:45:46.946Z,9.28
2019-05-21T06:51:08.650Z,8.50
2019-05-21T06:56:30.083Z,7.80
2019-05-21T07:01:51.821Z,7.95
2019-05-21T07:07:13.275Z,7.30
2019-05-21T07:12:35.101Z,8.15
2019-05-21T07:17:56.770Z,5.25
2019-05-21T07:23:18.268Z,5.67
2019-05-21T07:28:39.990Z,4.25
2019-05-21T07:34:02.105Z,4.70
2019-05-21T07:39:23.841Z,4.95
2019-05-21T07:44:45.601Z,4.45
2019-05-21T07:50:07.504Z,3.70
2019-05-21T07:55:29.634Z,4.25
2019-05-21T08:00:51.126Z,4.00
2019-05-21T08:06:15.098Z,4.03
2019-05-21T08:11:37.051Z,4.00
2019-05-21T08:16:59.016Z,4.25
2019-05-21T08:22:20.623Z,4.45
2019-05-21T08:27:42.539Z,4.60
2019-05-21T08:33:04.533Z,3.85
2019-05-21T08:38:26.522Z,5.78
2019-05-21T08:43:48.275Z,4.65
2019-05-21T08:49:10.279Z,4.37
2019-05-21T08:54:48.411Z,4.40
2019-05-21T09:00:12.203Z,4.15
2019-05-21T09:05:33.779Z,4.17
2019-05-21T09:10:55.459Z,3.95
2019-05-21T09:16:17.276Z,3.98
2019-05-21T09:21:38.710Z,3.77
2019-05-21T09:27:00.302Z,3.58
2019-05-21T09:32:23.202Z,4.00
2019-05-21T09:37:44.964Z,3.70
2019-05-21T09:43:06.708Z,3.58
2019-05-21T09:48:28.370Z,3.80
2019-05-21T09:53:50.257Z,4.12
2019-05-21T09:59:27.445Z,4.47
2019-05-21T10:04:49.118Z,4.47
2019-05-21T10:10:11.668Z,3.85
2019-05-21T10:15:33.755Z,3.12
2019-05-21T10:20:55.634Z,3.80
2019-05-21T10:26:17.652Z,3.00
2019-05-21T10:31:39.493Z,2.83
2019-05-21T10:37:01.175Z,3.30
2019-05-21T10:42:23.298Z,2.80
2019-05-21T10:47:45.235Z,2.65
2019-05-21T10:53:08.401Z,2.60
2019-05-21T10:58:30.528Z,2.60
2019-05-21T11:04:10.873Z,2.20
2019-05-21T11:09:33.115Z,2.65
2019-05-21T11:14:55.317Z,2.60
2019-05-21T11:20:17.418Z,2.67
2019-05-21T11:25:42.065Z,2.58
2019-05-21T11:31:03.887Z,2.50
2019-05-21T11:36:25.614Z,2.10
2019-05-21T11:41:47.329Z,2.60
2019-05-21T11:47:08.509Z,2.50
2019-05-21T11:52:30.561Z,2.70
2019-05-21T11:57:52.410Z,2.40
2019-05-21T12:03:14.661Z,2.20
2019-05-21T12:08:36.837Z,2.35
2019-05-21T12:13:58.625Z,2.15
2019-05-21T12:19:20.642Z,2.00
2019-05-21T12:24:43.192Z,2.40
2019-05-21T12:30:06.086Z,2.80
2019-05-21T12:35:27.805Z,2.47
2019-05-21T12:40:49.023Z,2.47
2019-05-21T12:46:13.994Z,2.25
2019-05-21T12:51:35.901Z,2.37
2019-05-21T12:56:57.411Z,2.35
2019-05-21T13:02:19.479Z,2.25
2019-05-21T13:07:41.323Z,2.45
2019-05-21T13:13:03.158Z,2.25
2019-05-21T13:18:24.732Z,2.17
2019-05-21T13:23:46.768Z,2.33
2019-05-21T13:29:08.494Z,2.52
2019-05-21T13:34:30.239Z,2.60
2019-05-21T13:39:52.106Z,2.92
2019-05-21T13:45:14.202Z,3.20
2019-05-21T13:50:36.005Z,2.80
2019-05-21T13:55:57.926Z,2.58
2019-05-21T14:01:38.802Z,3.02
2019-05-21T14:06:45.447Z,2.77
2019-05-21T14:12:07.234Z,2.52
2019-05-21T14:17:29.036Z,2.60
2019-05-21T14:22:50.994Z,2.40
2019-05-21T14:28:12.857Z,2.67
2019-05-21T14:33:35.160Z,2.37
2019-05-21T14:38:56.777Z,2.50
2019-05-21T14:44:18.706Z,2.20
2019-05-21T14:49:43.409Z,2.77
2019-05-21T14:55:05.596Z,2.60
2019-05-21T15:00:34.055Z,2.67
2019-05-21T15:05:58.769Z,2.83
2019-05-21T15:11:20.715Z,2.60
2019-05-21T15:16:42.086Z,4.67
2019-05-21T15:22:04.582Z,3.35
2019-05-21T15:27:26.367Z,2.62
2019-05-21T15:32:48.304Z,2.70
2019-05-21T15:38:10.243Z,3.20
2019-05-21T15:43:31.802Z,2.45
2019-05-21T15:48:54.061Z,3.10
2019-05-21T15:54:15.752Z,2.70
2019-05-21T15:59:37.435Z,2.95
2019-05-21T16:04:59.870Z,3.00
2019-05-21T16:10:21.933Z,3.60
2019-05-21T16:15:43.670Z,3.90
2019-05-21T16:21:05.779Z,4.45
2019-05-21T16:26:27.913Z,3.62
2019-05-21T16:31:50.105Z,2.47
2019-05-21T16:37:12.320Z,2.77
2019-05-21T16:42:33.756Z,2.77
2019-05-21T16:47:55.874Z,2.15
2019-05-21T16:53:18.034Z,2.08
2019-05-21T16:58:40.236Z,2.10
2019-05-21T17:04:02.439Z,2.33
2019-05-21T17:09:28.154Z,2.10
2019-05-21T17:14:50.029Z,2.20
2019-05-21T17:20:13.625Z,2.20
2019-05-21T17:25:35.045Z,2.15
2019-05-21T17:30:56.822Z,2.40
2019-05-21T17:36:18.591Z,2.10
2019-05-21T17:41:40.829Z,2.10
2019-05-21T17:47:02.791Z,2.52
2019-05-21T17:52:24.659Z,2.55
2019-05-21T17:57:50.208Z,2.25
2019-05-21T18:03:12.182Z,2.20
2019-05-21T18:08:34.155Z,2.22
2019-05-21T18:13:56.367Z,2.10
2019-05-21T18:19:18.088Z,2.20
2019-05-21T18:24:39.973Z,1.82
2019-05-21T18:30:03.894Z,2.10
2019-05-21T18:35:25.142Z,2.45
2019-05-21T18:40:46.736Z,1.98
2019-05-21T18:46:08.520Z,1.80
2019-05-21T18:51:30.372Z,1.95
2019-05-21T18:56:52.844Z,2.37
2019-05-21T19:02:15.217Z,1.82
2019-05-21T19:07:37.389Z,2.00
2019-05-21T19:13:00.869Z,2.00
2019-05-21T19:18:22.202Z,2.15
2019-05-21T19:23:46.701Z,2.20
2019-05-21T19:29:08.617Z,2.60
2019-05-21T19:34:30.779Z,2.45
2019-05-21T19:39:52.843Z,1.95
2019-05-21T19:45:15.044Z,3.67
2019-05-21T19:50:37.405Z,2.50
2019-05-21T19:55:59.479Z,2.87
2019-05-21T20:01:21.600Z,2.52
2019-05-21T20:06:44.339Z,2.47
2019-05-21T20:12:07.346Z,2.40
2019-05-21T20:17:30.721Z,2.37
2019-05-21T20:22:52.409Z,2.42
2019-05-21T20:28:14.244Z,2.30
2019-05-21T20:33:37.825Z,2.60
2019-05-21T20:38:59.489Z,2.80
2019-05-21T20:44:21.249Z,3.00
2019-05-21T20:49:44.716Z,3.05
2019-05-21T20:55:07.648Z,3.17
2019-05-21T21:00:40.410Z,3.30
2019-05-21T21:06:03.291Z,2.90
2019-05-21T21:11:25.115Z,2.95
2019-05-21T21:16:47.787Z,2.77
2019-05-21T21:22:09.896Z,3.10
2019-05-21T21:27:31.446Z,2.70
2019-05-21T21:32:54.618Z,2.83
2019-05-21T21:38:23.010Z,3.02
2019-05-21T21:43:45.262Z,2.80
2019-05-21T21:49:08.635Z,2.70
2019-05-21T21:54:30.719Z,2.92
2019-05-21T21:59:52.805Z,3.30
2019-05-21T22:05:14.845Z,3.05
2019-05-21T22:10:38.680Z,2.77
2019-05-21T22:16:00.744Z,3.77
2019-05-21T22:21:22.701Z,2.98
2019-05-21T22:26:44.749Z,3.25
2019-05-21T22:32:06.637Z,3.05
2019-05-21T22:37:29.786Z,2.95
2019-05-21T22:42:51.634Z,2.90
2019-05-21T22:48:13.540Z,3.00
2019-05-21T22:53:35.581Z,3.10
2019-05-21T22:58:57.511Z,3.20
2019-05-21T23:04:19.822Z,2.67
2019-05-21T23:09:41.416Z,2.90
2019-05-21T23:15:04.482Z,2.20
2019-05-21T23:20:27.299Z,2.80
2019-05-21T23:25:50.119Z,2.33
2019-05-21T23:31:12.534Z,2.40
2019-05-21T23:36:34.498Z,2.40
2019-05-21T23:41:56.758Z,2.45
2019-05-21T23:47:19.331Z,2.47
2019-05-21T23:52:41.265Z,2.15
2019-05-21T23:58:03.558Z,2.40
